Airfield :
LOGIN :

Register | Disclaimer

   EN    FR    IT 

 










Legend :    VFR   Marginal VFR   IFR   Intensive IFR   Very Intensive IFR
Visi :
Ceiling :
>= 8 km
>= 3000ft
5 to 8 km
1000 to 3000 ft
1500m to 5 km
500 to 1000 ft
800 to 1500m
200 to 500 ft
< 800m
< 200 ft
Symbols :   Thunderstorms  Fog  Heavy snow  Heavy precipitations  Wind > 20 kt
SIGMETs :     Misc.  Thunderstorms  Icing  Turbulence  Mountain Waves  Volcanic Ashes






- Airport Elevation : 794 ft


LKCV - Čáslav Air Base

CURRENT METAR :
  • 280530Z 26004KT 8000 OVC006 05/04 Q1016 NOSIG RMK YLO YLO

EXPIRED METARs :
  • 280500Z 24003KT 210V270 7000 OVC006 05/04 Q1016 NOSIG RMK YLO YLO
  • 280430Z 25003KT 7000 OVC005 05/04 Q1016 NOSIG RMK YLO YLO
  • 280400Z 28004KT 7000 -RA OVC005 05/04 Q1016 NOSIG RMK YLO YLO
  • 280330Z 27005KT 8000 -RA OVC005 05/04 Q1016 NOSIG RMK YLO YLO
  • 280300Z 27004KT 7000 -RA OVC006 05/04 Q1015 NOSIG RMK YLO YLO
  • 280230Z 24003KT 6000 -RA OVC006 05/04 Q1015 NOSIG RMK YLO YLO
  • 280200Z 27003KT 7000 -RA OVC006 05/04 Q1015 NOSIG RMK YLO YLO
  • 280130Z 24001KT 7000 BKN007 OVC018 05/04 Q1015 NOSIG RMK GRN GRN
  • 280100Z 00000KT 7000 SCT006 OVC020 05/04 Q1015 NOSIG RMK BLU BLU

TAF TAF LKCV
Valid from the 28 at 00:00 until the 29 at 00:00 UTC


272300Z 2800/2900 VRB02KT 5000 BR BKN015
TEMPO 2800/2814 3000 RADZ BR BKN007
PROB30 2802/2808 0600 FG VV002
BECMG 2807/2809 30006KT
TEMPO 2814/2900 9999 BR BKN025



MET'MAP, your aeronautical weather chart ! - Copyright ORBIFLY December 2007 - Disclaimer

ORBIFLY MET'MAP TEAM :

Programming & Development : Alexandra Zaïnal
Original concept : Baudouin d'Aumeries
Technical & hardware support : Manuel Goepfert
Assistance : Marc-Olivier Méhu




SOURCES & CREDITS :

   NOAA